Time;durP1;ratioP1;P1;durP2;ratioP2;P2;SDS_P1;SDS_P2;PMS_P1;PMS_P2;Temp;Humidity;BMP_temperature;BMP_pressure;BME280_temperature;BME280_humidity;BME280_pressure;Samples;Min_cycle;Max_cycle;Signal;HPM_P1;HPM_P2
2023/01/19 00:01:51;;;;;;;10.43;9.37;;;;;;;1.20;100.00;100116.97;5073098;28;20035;-35
2023/01/19 00:04:16;;;;;;;15.07;11.30;;;;;;;1.24;100.00;100118.25;5073738;28;20051;-36
2023/01/19 00:06:41;;;;;;;12.07;9.83;;;;;;;1.23;100.00;100119.25;5072702;28;20077;-36
2023/01/19 00:09:07;;;;;;;11.50;9.87;;;;;;;1.25;100.00;100127.06;5074477;28;20032;-36
2023/01/19 00:11:32;;;;;;;13.50;10.27;;;;;;;1.23;100.00;100124.59;5076880;28;20033;-36
2023/01/19 00:13:57;;;;;;;12.50;10.63;;;;;;;1.16;100.00;100117.53;5077414;28;20025;-36
2023/01/19 00:16:23;;;;;;;13.40;9.60;;;;;;;1.22;100.00;100122.09;5076711;28;20051;-36
2023/01/19 00:18:50;;;;;;;12.57;9.85;;;;;;;1.19;100.00;100128.63;5076661;28;20028;-36
2023/01/19 00:21:16;;;;;;;10.77;9.40;;;;;;;1.18;100.00;100119.00;5076554;28;20025;-36
2023/01/19 00:23:46;;;;;;;11.20;9.82;;;;;;;1.17;100.00;100128.00;5076571;28;20111;-35
2023/01/19 00:26:12;;;;;;;11.15;9.68;;;;;;;1.16;100.00;100134.31;5076166;28;20108;-35
2023/01/19 00:28:37;;;;;;;13.10;10.45;;;;;;;1.13;100.00;100121.41;5077317;28;20024;-36
2023/01/19 00:31:03;;;;;;;11.27;10.17;;;;;;;1.18;100.00;100136.81;5076507;28;20028;-36
2023/01/19 00:33:28;;;;;;;11.50;9.80;;;;;;;1.17;100.00;100127.16;5076408;28;20082;-36
2023/01/19 00:35:53;;;;;;;13.23;11.13;;;;;;;1.07;100.00;100124.78;5076869;28;20031;-36
2023/01/19 00:38:19;;;;;;;13.47;11.97;;;;;;;1.06;100.00;100119.66;5076888;28;20423;-36
2023/01/19 00:40:46;;;;;;;12.60;10.10;;;;;;;1.05;100.00;100124.16;5076779;28;20028;-40
2023/01/19 00:43:11;;;;;;;12.57;9.68;;;;;;;1.07;100.00;100130.13;5076532;28;20024;-36
2023/01/19 00:45:36;;;;;;;12.87;10.23;;;;;;;1.04;100.00;100114.53;5076240;28;20070;-36
2023/01/19 00:48:02;;;;;;;15.23;10.63;;;;;;;1.01;100.00;100113.06;5076723;28;20067;-36
2023/01/19 00:50:29;;;;;;;12.30;10.33;;;;;;;1.02;100.00;100116.53;5076725;28;20518;-36
2023/01/19 00:52:56;;;;;;;14.27;10.95;;;;;;;1.00;100.00;100110.59;5076036;28;20301;-36
2023/01/19 00:55:22;;;;;;;15.40;10.05;;;;;;;0.94;100.00;100116.66;5075977;28;20464;-36
2023/01/19 00:57:47;;;;;;;11.90;10.23;;;;;;;0.97;100.00;100125.06;5076444;28;20039;-36
2023/01/19 01:00:18;;;;;;;11.57;9.95;;;;;;;0.97;100.00;100125.06;5076210;28;20032;-36
2023/01/19 01:02:44;;;;;;;14.65;10.70;;;;;;;0.96;100.00;100126.09;5075696;28;20028;-36
2023/01/19 01:05:10;;;;;;;15.35;10.82;;;;;;;0.95;100.00;100123.63;5076478;28;20048;-36
2023/01/19 01:07:39;;;;;;;13.40;10.85;;;;;;;0.96;100.00;100117.28;5075504;28;20059;-36
2023/01/19 01:10:10;;;;;;;13.48;10.93;;;;;;;0.98;100.00;100120.59;5075651;28;20488;-36
2023/01/19 01:12:36;;;;;;;12.85;10.32;;;;;;;1.01;100.00;100128.19;5075673;28;20403;-36
2023/01/19 01:15:02;;;;;;;15.13;10.82;;;;;;;1.03;100.00;100132.34;5076223;28;20033;-36
2023/01/19 01:17:27;;;;;;;13.23;9.70;;;;;;;1.09;100.00;100138.75;5075560;28;20036;-36
2023/01/19 01:19:52;;;;;;;12.43;9.67;;;;;;;1.15;100.00;100140.66;5075335;28;20036;-36
2023/01/19 01:22:18;;;;;;;12.27;9.63;;;;;;;1.16;100.00;100146.81;5075330;28;20028;-36
2023/01/19 01:24:43;;;;;;;12.67;9.50;;;;;;;1.14;100.00;100144.34;5076110;28;20035;-36
2023/01/19 01:27:08;;;;;;;11.70;9.63;;;;;;;1.06;100.00;100130.31;5075087;28;20098;-36
2023/01/19 01:29:34;;;;;;;12.53;9.97;;;;;;;1.14;100.00;100143.53;5075117;28;20074;-36
2023/01/19 01:32:00;;;;;;;14.63;9.23;;;;;;;1.13;100.00;100139.22;5075792;28;20031;-36
2023/01/19 01:34:25;;;;;;;11.43;8.45;;;;;;;1.06;100.00;100117.81;5075276;28;20025;-36
2023/01/19 01:36:51;;;;;;;14.23;9.80;;;;;;;1.16;100.00;100136.16;5075189;28;20035;-36
2023/01/19 01:39:16;;;;;;;15.37;9.27;;;;;;;1.14;100.00;100124.88;5075212;28;20070;-36
2023/01/19 01:41:41;;;;;;;13.43;9.60;;;;;;;1.12;100.00;100126.88;5075383;28;20067;-36
2023/01/19 01:44:48;;;;;;;10.90;9.27;;;;;;;1.18;100.00;100140.31;5075137;28;20491;-36
2023/01/19 01:47:35;;;;;;;13.38;9.55;;;;;;;1.17;100.00;100135.16;5075529;28;20107;-36
2023/01/19 01:50:16;;;;;;;13.18;8.90;;;;;;;1.13;100.00;100141.88;5074922;28;20043;-36
2023/01/19 01:52:48;;;;;;;15.02;9.30;;;;;;;0.99;100.00;100125.75;5074844;28;20499;-36
2023/01/19 01:55:15;;;;;;;10.55;8.70;;;;;;;1.00;100.00;100140.69;5075159;28;20381;-36
2023/01/19 01:57:45;;;;;;;12.02;8.77;;;;;;;0.96;100.00;100150.06;5074979;28;20082;-36
2023/01/19 02:00:11;;;;;;;12.50;8.50;;;;;;;0.94;100.00;100146.78;5075029;28;20029;-36
2023/01/19 02:02:53;;;;;;;12.73;8.43;;;;;;;0.87;100.00;100123.72;5074654;28;20499;-36
2023/01/19 02:05:26;;;;;;;13.18;8.65;;;;;;;0.87;100.00;100134.38;5074373;28;20032;-36
2023/01/19 02:13:45;;;;;;;12.90;9.20;;;;;;;0.77;100.00;100158.59;5074863;28;20040;-36
2023/01/19 02:16:12;;;;;;;11.48;9.00;;;;;;;0.72;100.00;100155.66;5074459;28;20047;-35
2023/01/19 02:18:39;;;;;;;8.38;7.50;;;;;;;0.71;100.00;100152.19;5074598;28;20362;-35
2023/01/19 02:21:04;;;;;;;;;;;;;;;0.71;100.00;100160.16;5074752;28;20034;-35
2023/01/19 02:23:51;;;;;;;12.30;8.52;;;;;;;0.67;100.00;100152.72;5074602;28;20003;-35
2023/01/19 02:26:34;;;;;;;11.00;8.35;;;;;;;0.63;100.00;100157.59;5074539;28;20108;-35
2023/01/19 02:29:11;;;;;;;9.70;8.25;;;;;;;0.56;100.00;100155.84;5074805;28;20032;-35
2023/01/19 02:31:38;;;;;;;10.07;7.65;;;;;;;0.47;100.00;100153.28;5074213;28;20036;-35
2023/01/19 02:34:06;;;;;;;12.18;7.95;;;;;;;0.49;100.00;100166.41;5074953;28;20036;-35
2023/01/19 02:36:55;;;;;;;10.68;7.72;;;;;;;0.40;100.00;100155.03;5072994;28;20465;-35
2023/01/19 02:39:27;;;;;;;10.48;7.75;;;;;;;0.40;100.00;100178.13;5074209;28;20486;-35
2023/01/19 02:42:01;;;;;;;9.38;8.10;;;;;;;0.39;100.00;100168.47;5074255;28;20025;-35
2023/01/19 02:44:29;;;;;;;10.43;8.10;;;;;;;0.30;100.00;100153.63;5074206;28;20077;-35
2023/01/19 02:46:55;;;;;;;14.98;9.25;;;;;;;0.27;100.00;100161.97;5073624;28;20021;-35
2023/01/19 02:49:20;;;;;;;12.48;9.57;;;;;;;0.27;100.00;100167.28;5074673;28;20353;-35
2023/01/19 02:51:46;;;;;;;12.73;9.63;;;;;;;0.29;100.00;100178.56;5073862;28;20024;-35
2023/01/19 02:54:49;;;;;;;10.90;8.98;;;;;;;0.29;100.00;100183.88;5073821;28;20111;-35
2023/01/19 02:57:30;;;;;;;13.98;9.38;;;;;;;0.28;100.00;100179.56;5073739;28;20167;-35
2023/01/19 03:00:12;;;;;;;11.20;10.00;;;;;;;0.27;100.00;100183.25;5073790;28;20104;-35
2023/01/19 03:02:40;;;;;;;10.70;9.57;;;;;;;0.22;100.00;100181.94;5073449;28;20032;-35
2023/01/19 03:05:25;;;;;;;10.25;9.15;;;;;;;0.22;100.00;100183.78;5074646;28;20072;-35
2023/01/19 03:08:05;;;;;;;11.13;8.43;;;;;;;0.25;100.00;100194.06;5074177;28;20024;-35
2023/01/19 03:10:42;;;;;;;11.85;8.77;;;;;;;0.24;100.00;100198.56;5073649;28;20052;-35
2023/01/19 03:13:20;;;;;;;9.93;8.57;;;;;;;0.21;100.00;100185.63;5073906;28;20073;-35
2023/01/19 03:15:53;;;;;;;10.15;8.48;;;;;;;0.27;100.00;100199.19;5073614;28;20031;-35
2023/01/19 03:18:21;;;;;;;10.73;8.02;;;;;;;0.28;100.00;100201.66;5073873;28;20024;-35
2023/01/19 03:20:49;;;;;;;8.95;7.63;;;;;;;0.24;100.00;100201.22;5074311;28;20028;-35
2023/01/19 03:23:15;;;;;;;9.02;7.85;;;;;;;0.25;100.00;100210.84;5073425;28;20117;-35
2023/01/19 03:25:44;;;;;;;8.30;7.03;;;;;;;0.28;100.00;100217.63;5073494;28;20493;-35
2023/01/19 03:28:12;;;;;;;7.90;7.10;;;;;;;0.30;100.00;100225.44;5073925;28;20055;-35
2023/01/19 03:30:45;;;;;;;7.55;6.50;;;;;;;0.30;100.00;100220.94;5074231;28;20043;-35
2023/01/19 03:33:16;;;;;;;8.02;6.60;;;;;;;0.28;100.00;100222.94;5073650;28;20505;-35
2023/01/19 03:35:47;;;;;;;6.72;6.03;;;;;;;0.18;100.00;100212.56;5073414;28;20025;-35
2023/01/19 03:38:15;;;;;;;6.40;5.80;;;;;;;0.28;100.00;100238.91;5073008;28;20039;-35
2023/01/19 03:40:40;;;;;;;6.45;5.57;;;;;;;0.28;100.00;100222.13;5073604;28;20396;-35
2023/01/19 03:43:07;;;;;;;5.73;5.23;;;;;;;0.28;100.00;100227.44;5073316;28;20025;-35
2023/01/19 03:45:36;;;;;;;6.43;5.38;;;;;;;0.10;100.00;100214.44;5077185;28;20115;-36
2023/01/19 03:48:02;;;;;;;6.03;5.43;;;;;;;0.21;100.00;100235.31;5077890;28;20056;-35
2023/01/19 03:50:28;;;;;;;6.18;5.40;;;;;;;0.28;100.00;100248.72;5077579;28;20025;-35
2023/01/19 03:53:01;;;;;;;;;;;;;;;0.31;100.00;100254.50;5077541;28;20028;-35
2023/01/19 03:55:26;;;;;;;5.00;4.50;;;;;;;0.28;100.00;100259.34;5077634;28;19908;-35
2023/01/19 03:57:51;;;;;;;6.17;5.03;;;;;;;0.21;100.00;100243.28;5077297;28;20036;-35
2023/01/19 04:00:17;;;;;;;5.17;4.67;;;;;;;0.28;100.00;100260.19;5077035;28;20032;-35
2023/01/19 04:02:42;;;;;;;5.03;4.53;;;;;;;0.25;100.00;100255.22;5076902;28;20453;-35
2023/01/19 04:05:08;;;;;;;4.53;4.13;;;;;;;0.27;100.00;100268.34;5077064;28;20044;-35
2023/01/19 04:07:33;;;;;;;3.72;3.40;;;;;;;0.25;100.00;100271.19;5077799;28;20346;-35
2023/01/19 04:09:59;;;;;;;4.07;3.67;;;;;;;0.24;100.00;100273.03;5077575;28;20017;-35
2023/01/19 04:12:24;;;;;;;4.03;3.13;;;;;;;0.23;100.00;100271.34;5076575;28;20477;-35
2023/01/19 04:14:49;;;;;;;3.17;2.87;;;;;;;0.22;100.00;100277.69;5076849;28;20021;-35
2023/01/19 04:17:14;;;;;;;2.97;2.67;;;;;;;0.23;100.00;100274.00;5077178;28;20028;-35
2023/01/19 04:19:40;;;;;;;3.10;2.80;;;;;;;0.21;100.00;100278.69;5076512;28;20039;-35
2023/01/19 04:22:05;;;;;;;3.13;2.83;;;;;;;0.07;100.00;100263.50;5076672;28;20032;-35
2023/01/19 04:24:30;;;;;;;2.90;2.10;;;;;;;0.20;100.00;100282.34;5077161;28;20031;-35
2023/01/19 04:26:56;;;;;;;2.10;1.90;;;;;;;0.11;100.00;100275.44;5076591;28;20457;-35
2023/01/19 04:29:21;;;;;;;2.00;1.80;;;;;;;0.18;100.00;100287.00;5076526;28;20070;-35
2023/01/19 04:31:47;;;;;;;1.93;1.73;;;;;;;0.10;100.00;100271.13;5076703;28;20389;-36
2023/01/19 04:34:12;;;;;;;1.90;1.60;;;;;;;0.17;100.00;100293.34;5076792;28;20278;-35
2023/01/19 04:36:37;;;;;;;1.60;1.50;;;;;;;0.16;100.00;100283.72;5076727;28;20039;-35
2023/01/19 04:39:03;;;;;;;1.40;1.20;;;;;;;0.15;100.00;100292.69;5076577;28;20036;-35
2023/01/19 04:41:29;;;;;;;1.42;1.10;;;;;;;0.16;100.00;100294.34;5076222;28;20111;-35
2023/01/19 04:43:54;;;;;;;2.63;1.60;;;;;;;0.04;100.00;100281.63;5076854;28;20440;-35
2023/01/19 04:46:19;;;;;;;1.40;1.20;;;;;;;0.16;100.00;100298.84;5075967;28;20031;-35
2023/01/19 04:48:45;;;;;;;2.23;1.40;;;;;;;0.13;100.00;100289.38;5076301;28;20029;-35
2023/01/19 04:51:10;;;;;;;1.50;1.30;;;;;;;0.11;100.00;100264.81;5075913;28;20021;-35
2023/01/19 04:53:36;;;;;;;1.50;1.27;;;;;;;0.08;100.00;100233.25;5076125;28;20025;-35
2023/01/19 04:56:01;;;;;;;1.00;0.90;;;;;;;0.07;100.00;100215.66;5075683;28;20020;-35
2023/01/19 04:58:26;;;;;;;2.30;1.03;;;;;;;0.08;100.00;100211.16;5075971;28;20152;-35
2023/01/19 05:00:52;;;;;;;1.30;0.77;;;;;;;0.08;100.00;100222.59;5075935;28;20024;-35
2023/01/19 05:03:18;;;;;;;1.60;1.00;;;;;;;0.12;100.00;100233.72;5076736;28;20072;-35
2023/01/19 05:05:43;;;;;;;1.23;0.95;;;;;;;0.04;100.00;100229.28;5076082;28;20488;-35
2023/01/19 05:08:09;;;;;;;1.55;1.20;;;;;;;-0.03;100.00;100199.09;5075888;28;20020;-35
2023/01/19 05:10:35;;;;;;;1.83;1.30;;;;;;;0.05;100.00;100211.50;5075770;28;20469;-35
2023/01/19 05:13:00;;;;;;;2.00;1.48;;;;;;;0.05;100.00;100211.50;5075724;28;20016;-35
2023/01/19 05:15:26;;;;;;;1.80;1.47;;;;;;;0.07;100.00;100217.47;5075703;28;20575;-35
2023/01/19 05:17:51;;;;;;;2.13;1.63;;;;;;;0.08;100.00;100216.47;5076422;28;20475;-35
2023/01/19 05:20:17;;;;;;;3.45;2.08;;;;;;;0.09;100.00;100218.13;5075380;28;20028;-35
2023/01/19 05:22:48;;;;;;;4.28;2.17;;;;;;;0.06;100.00;100219.31;5075575;28;20064;-35
2023/01/19 05:25:14;;;;;;;2.95;2.20;;;;;;;0.08;100.00;100233.25;5075502;28;20024;-35
2023/01/19 05:27:39;;;;;;;4.47;2.50;;;;;;;0.10;100.00;100231.25;5075115;28;20033;-35
2023/01/19 05:30:05;;;;;;;2.70;2.50;;;;;;;0.09;100.00;100234.88;5057469;28;20123;-36
2023/01/19 05:32:30;;;;;;;2.83;2.35;;;;;;;0.12;100.00;100247.84;5075904;28;20063;-36
2023/01/19 05:34:56;;;;;;;5.37;3.50;;;;;;;0.15;100.00;100254.66;5075696;28;20028;-36
2023/01/19 05:37:21;;;;;;;3.20;2.40;;;;;;;0.13;100.00;100260.13;5074945;28;20028;-36
2023/01/19 05:39:46;;;;;;;4.70;2.60;;;;;;;0.14;100.00;100251.13;5075354;28;20384;-35
2023/01/19 05:42:12;;;;;;;3.67;2.83;;;;;;;0.13;100.00;100262.78;5075500;28;20025;-36
2023/01/19 05:44:37;;;;;;;4.93;3.00;;;;;;;0.14;100.00;100269.75;5075461;28;20358;-35
2023/01/19 05:47:02;;;;;;;4.50;2.90;;;;;;;0.09;100.00;100260.66;5075084;28;20380;-36
2023/01/19 05:49:28;;;;;;;4.23;3.00;;;;;;;0.13;100.00;100273.41;5075060;28;20056;-36
2023/01/19 05:51:53;;;;;;;3.37;2.70;;;;;;;0.09;100.00;100272.09;5075241;28;20480;-35
2023/01/19 05:54:18;;;;;;;3.63;3.27;;;;;;;0.18;100.00;100276.38;5075050;28;20423;-35
2023/01/19 05:56:44;;;;;;;5.97;3.70;;;;;;;0.17;100.00;100282.69;5075193;28;20047;-36
2023/01/19 05:59:10;;;;;;;5.57;4.10;;;;;;;0.21;100.00;100286.66;5074760;28;20074;-36
2023/01/19 06:01:37;;;;;;;6.55;3.75;;;;;;;0.19;100.00;100282.50;5074768;28;20028;-35
2023/01/19 06:04:03;;;;;;;5.00;3.80;;;;;;;0.19;100.00;100280.69;5075376;28;20412;-35
2023/01/19 06:06:28;;;;;;;;;;;;;;;0.24;100.00;100280.16;5075148;28;20032;-36
2023/01/19 06:08:53;;;;;;;5.50;3.90;;;;;;;0.21;100.00;100280.53;5074977;28;19912;-36
2023/01/19 06:11:19;;;;;;;5.67;4.30;;;;;;;0.23;100.00;100281.16;5074519;28;20385;-35
2023/01/19 06:13:45;;;;;;;6.28;4.50;;;;;;;0.24;100.00;100291.63;5075407;28;20323;-36
2023/01/19 06:16:11;;;;;;;5.40;4.22;;;;;;;0.24;100.00;100294.28;5074174;28;20024;-36
2023/01/19 06:18:36;;;;;;;8.27;5.10;;;;;;;0.22;100.00;100288.31;5075251;28;20060;-35
2023/01/19 06:21:04;;;;;;;6.33;4.50;;;;;;;0.26;100.00;100302.09;5074098;28;20267;-36
2023/01/19 06:23:31;;;;;;;5.63;4.85;;;;;;;0.28;100.00;100307.22;5074716;28;20027;-36
2023/01/19 06:25:56;;;;;;;7.00;4.80;;;;;;;0.25;100.00;100295.94;5074009;28;20640;-35
2023/01/19 06:28:22;;;;;;;5.63;5.03;;;;;;;0.15;100.00;100289.22;5074335;28;20095;-36
2023/01/19 06:30:49;;;;;;;6.93;5.53;;;;;;;0.26;100.00;100310.06;5074171;28;20040;-36
2023/01/19 06:33:15;;;;;;;9.38;6.90;;;;;;;0.28;100.00;100318.69;5074759;28;20024;-35
2023/01/19 06:35:42;;;;;;;8.13;5.22;;;;;;;0.30;100.00;100316.69;5074395;28;20487;-36
2023/01/19 06:38:08;;;;;;;7.47;5.45;;;;;;;0.27;100.00;100321.53;5073996;28;20034;-35
2023/01/19 06:40:33;;;;;;;8.47;6.57;;;;;;;0.26;100.00;100320.72;5074038;28;20024;-36
2023/01/19 06:42:58;;;;;;;9.70;7.17;;;;;;;0.27;100.00;100327.69;5074065;28;20108;-35
2023/01/19 06:45:24;;;;;;;8.53;7.63;;;;;;;0.29;100.00;100333.63;5074280;28;20108;-35
2023/01/19 06:47:49;;;;;;;12.93;8.33;;;;;;;0.25;100.00;100329.69;5074212;28;20060;-36
2023/01/19 06:50:14;;;;;;;9.77;8.77;;;;;;;0.32;100.00;100340.44;5074213;28;20082;-35
2023/01/19 06:52:42;;;;;;;10.25;8.80;;;;;;;0.33;100.00;100348.25;5074611;28;20097;-35
2023/01/19 06:55:09;;;;;;;9.13;8.23;;;;;;;0.32;100.00;100348.41;5074150;28;20032;-35
2023/01/19 06:57:39;;;;;;;11.40;8.77;;;;;;;0.35;100.00;100361.38;5073942;28;20514;-35
2023/01/19 07:00:06;;;;;;;12.98;9.88;;;;;;;0.33;100.00;100356.22;5074569;28;20025;-36
2023/01/19 07:02:35;;;;;;;13.95;11.75;;;;;;;0.33;100.00;100358.06;5073603;28;20389;-36
2023/01/19 07:05:00;;;;;;;15.45;11.25;;;;;;;0.35;100.00;100356.88;5074331;28;20116;-35
2023/01/19 07:07:26;;;;;;;12.60;11.23;;;;;;;0.39;100.00;100368.84;5073724;28;20025;-36
2023/01/19 07:09:51;;;;;;;13.30;11.70;;;;;;;0.42;100.00;100367.63;5073778;28;20025;-35
2023/01/19 07:12:17;;;;;;;13.17;10.80;;;;;;;0.44;100.00;100373.59;5073693;28;20033;-35
2023/01/19 07:14:42;;;;;;;13.47;11.43;;;;;;;0.38;100.00;100369.00;5073961;28;20029;-35
2023/01/19 07:17:08;;;;;;;14.40;12.03;;;;;;;0.47;100.00;100378.56;5054784;28;20271;-35
2023/01/19 07:19:34;;;;;;;17.73;12.73;;;;;;;0.46;100.00;100384.91;5072692;28;20473;-35
2023/01/19 07:21:59;;;;;;;14.13;12.52;;;;;;;0.45;100.00;100383.25;5073433;28;20415;-36
2023/01/19 07:24:25;;;;;;;15.65;12.95;;;;;;;0.45;100.00;100386.75;5073812;28;20212;-35
2023/01/19 07:26:50;;;;;;;14.90;12.90;;;;;;;0.47;100.00;100390.03;5055391;28;20060;-35
2023/01/19 07:29:16;;;;;;;16.87;14.20;;;;;;;0.48;100.00;100385.53;5073558;28;20020;-35
2023/01/19 07:31:41;;;;;;;15.67;14.00;;;;;;;0.49;100.00;100392.53;5073468;28;20385;-35
2023/01/19 07:34:06;;;;;;;18.53;15.13;;;;;;;0.52;100.00;100397.50;5073494;28;20039;-35
2023/01/19 07:36:31;;;;;;;21.40;16.13;;;;;;;0.42;100.00;100378.28;5073685;28;20028;-35
2023/01/19 07:38:57;;;;;;;23.57;19.23;;;;;;;0.54;100.00;100405.28;5073411;28;20035;-35
2023/01/19 07:41:22;;;;;;;27.43;22.03;;;;;;;0.55;100.00;100404.31;5073425;28;20024;-36
2023/01/19 07:43:50;;;;;;;24.00;20.90;;;;;;;0.41;100.00;100392.59;5073455;28;20095;-36
2023/01/19 07:46:15;;;;;;;26.60;19.38;;;;;;;0.53;100.00;100407.13;5074066;28;20029;-36
2023/01/19 07:48:43;;;;;;;27.40;19.33;;;;;;;0.57;100.00;100418.25;5073640;28;20040;-35
2023/01/19 07:51:10;;;;;;;20.30;16.75;;;;;;;0.57;100.00;100419.06;5073210;28;20111;-36
2023/01/19 07:53:36;;;;;;;19.65;16.73;;;;;;;0.58;100.00;100425.22;5074353;28;20032;-35
2023/01/19 07:56:04;;;;;;;22.40;17.52;;;;;;;0.57;100.00;100418.25;5072954;28;20393;-35
2023/01/19 07:58:30;;;;;;;23.30;18.38;;;;;;;0.56;100.00;100430.72;5073196;28;20025;-36
2023/01/19 08:00:55;;;;;;;24.88;19.02;;;;;;;0.57;100.00;100434.22;5072888;28;20027;-35
2023/01/19 08:03:21;;;;;;;21.97;17.57;;;;;;;0.52;100.00;100432.09;5073315;28;20044;-36
2023/01/19 08:05:51;;;;;;;22.70;19.10;;;;;;;0.56;100.00;100443.22;5072885;28;20036;-36
2023/01/19 08:08:17;;;;;;;20.95;17.40;;;;;;;0.57;100.00;100437.69;5073376;28;20032;-35
2023/01/19 08:10:42;;;;;;;22.33;17.23;;;;;;;0.49;100.00;100437.78;5073027;28;20461;-36
2023/01/19 08:13:08;;;;;;;21.50;17.13;;;;;;;0.56;100.00;100448.53;5055131;28;20109;-35
2023/01/19 08:15:33;;;;;;;19.53;16.33;;;;;;;0.59;100.00;100459.66;5072785;28;20036;-36
2023/01/19 08:18:01;;;;;;;22.47;17.47;;;;;;;0.60;100.00;100466.63;5073014;28;20483;-35
2023/01/19 08:20:27;;;;;;;21.50;18.70;;;;;;;0.62;100.00;100469.09;5073252;28;20432;-35
2023/01/19 08:22:58;;;;;;;21.05;17.33;;;;;;;0.57;100.00;100464.31;5072626;28;20039;-36
2023/01/19 08:25:25;;;;;;;19.58;17.20;;;;;;;0.53;100.00;100468.31;5073213;28;20032;-36
2023/01/19 08:27:53;;;;;;;24.13;17.58;;;;;;;0.62;100.00;100485.06;5072645;28;20028;-35
2023/01/19 08:30:18;;;;;;;18.92;15.45;;;;;;;0.61;100.00;100486.09;5074827;28;20099;-36
2023/01/19 08:32:43;;;;;;;22.13;16.23;;;;;;;0.70;100.00;100503.66;5076828;28;20074;-36
2023/01/19 08:35:09;;;;;;;22.60;15.47;;;;;;;0.75;100.00;100512.78;5076756;28;20104;-35
2023/01/19 08:37:34;;;;;;;20.48;15.77;;;;;;;0.79;100.00;100515.09;5076615;28;20465;-35
2023/01/19 08:40:00;;;;;;;21.37;14.80;;;;;;;0.69;100.00;100502.84;5076149;28;20369;-36
2023/01/19 08:42:26;;;;;;;19.43;14.97;;;;;;;0.83;100.00;100529.69;5076325;28;20033;-35
2023/01/19 08:44:52;;;;;;;23.17;15.35;;;;;;;0.84;100.00;100523.41;5076302;28;20017;-36
2023/01/19 08:47:17;;;;;;;20.50;14.52;;;;;;;0.85;100.00;100527.72;5076223;28;20101;-35
2023/01/19 08:49:42;;;;;;;18.17;14.77;;;;;;;0.81;100.00;100521.06;5076225;28;20032;-36
2023/01/19 08:52:08;;;;;;;20.27;15.63;;;;;;;0.81;100.00;100526.41;5075933;28;20107;-36
2023/01/19 08:54:33;;;;;;;21.77;17.60;;;;;;;0.87;100.00;100531.00;5076198;28;20024;-35
2023/01/19 08:56:58;;;;;;;23.13;18.33;;;;;;;0.80;100.00;100530.06;5058145;28;20029;-36
2023/01/19 08:59:23;;;;;;;28.53;21.37;;;;;;;0.83;100.00;100540.34;5075771;28;20027;-36
2023/01/19 09:01:49;;;;;;;27.03;19.73;;;;;;;0.85;100.00;100535.69;5075955;28;20035;-36
2023/01/19 09:04:14;;;;;;;34.63;24.00;;;;;;;0.83;100.00;100549.19;5076511;28;20047;-36
2023/01/19 09:06:39;;;;;;;33.27;22.00;;;;;;;0.84;100.00;100545.50;5076195;28;20020;-35
2023/01/19 09:09:05;;;;;;;31.53;24.23;;;;;;;0.81;100.00;100537.03;5076179;28;20102;-36
2023/01/19 09:11:30;;;;;;;38.13;25.47;;;;;;;0.80;100.00;100535.41;5058332;28;20033;-35
2023/01/19 09:13:56;;;;;;;40.25;27.40;;;;;;;0.89;100.00;100547.66;5076632;28;20025;-36
2023/01/19 09:16:21;;;;;;;37.03;27.20;;;;;;;0.95;100.00;100554.94;5075496;28;20067;-35
2023/01/19 09:18:46;;;;;;;39.17;27.20;;;;;;;0.94;100.00;100539.97;5075904;28;20024;-35
2023/01/19 09:21:12;;;;;;;37.20;27.53;;;;;;;1.00;100.00;100544.59;5075370;28;20036;-36
2023/01/19 09:23:38;;;;;;;39.38;28.33;;;;;;;1.03;100.00;100544.25;5075306;28;20060;-36
2023/01/19 09:26:04;;;;;;;39.97;29.33;;;;;;;0.99;100.00;100545.59;5075530;28;20113;-36
2023/01/19 09:28:30;;;;;;;40.92;28.17;;;;;;;1.02;100.00;100553.22;5076119;28;20063;-35
2023/01/19 09:30:56;;;;;;;41.45;30.17;;;;;;;0.96;100.00;100553.94;5075500;28;20024;-36
2023/01/19 09:33:22;;;;;;;47.75;29.40;;;;;;;0.99;100.00;100553.59;5075441;28;20119;-36
2023/01/19 09:35:48;;;;;;;43.75;30.10;;;;;;;0.96;100.00;100541.44;5075627;28;20028;-36
2023/01/19 09:38:15;;;;;;;43.08;29.85;;;;;;;1.01;100.00;100557.72;5075815;28;20086;-36
2023/01/19 09:41:03;;;;;;;46.83;31.10;;;;;;;1.06;100.00;100562.50;5075109;28;20031;-36
2023/01/19 09:43:44;;;;;;;42.90;29.50;;;;;;;0.98;100.00;100551.94;5075480;28;20025;-35
2023/01/19 09:46:15;;;;;;;41.72;31.55;;;;;;;1.03;100.00;100569.03;5075417;28;20020;-35
2023/01/19 09:48:50;;;;;;;45.28;29.63;;;;;;;1.01;100.00;100571.03;5075586;28;20111;-36
2023/01/19 09:51:25;;;;;;;43.88;30.45;;;;;;;1.04;100.00;100567.19;5074702;28;20036;-36
2023/01/19 09:54:03;;;;;;;41.45;28.88;;;;;;;1.00;100.00;100565.88;5074693;28;20021;-36
2023/01/19 09:56:30;;;;;;;44.17;30.85;;;;;;;1.08;100.00;100570.34;5074905;28;20043;-36
2023/01/19 09:58:55;;;;;;;38.90;28.15;;;;;;;1.12;100.00;100572.44;5074598;28;20078;-35
2023/01/19 10:02:02;;;;;;;37.17;26.53;;;;;;;1.19;100.00;100578.75;5074526;28;20028;-36
2023/01/19 10:04:32;;;;;;;34.00;24.65;;;;;;;1.12;100.00;100556.47;4973831;28;20085;-36
2023/01/19 10:07:31;;;;;;;33.25;23.65;;;;;;;1.40;100.00;100579.94;4973729;28;20102;-36
2023/01/19 10:10:30;;;;;;;35.53;24.05;;;;;;;1.47;100.00;100586.22;4973885;28;20476;-36
2023/01/19 10:13:16;;;;;;;30.02;21.67;;;;;;;1.61;100.00;100593.47;4973546;28;20137;-36
2023/01/19 10:15:51;;;;;;;25.70;19.63;;;;;;;1.61;100.00;100582.78;4973878;28;20043;-36
2023/01/19 10:18:31;;;;;;;26.75;18.80;;;;;;;1.65;100.00;100578.75;4973299;28;20035;-36
2023/01/19 10:21:40;;;;;;;29.77;18.77;;;;;;;1.78;100.00;100594.97;4974141;28;20460;-36
2023/01/19 10:24:34;;;;;;;26.20;17.33;;;;;;;1.86;100.00;100590.59;4916227;29;20041;-35
2023/01/19 10:26:59;;;;;;;23.67;15.52;;;;;;;1.94;100.00;100582.50;4916484;29;20024;-35
2023/01/19 10:29:35;;;;;;;21.27;15.32;;;;;;;1.93;100.00;100583.50;4916460;29;20051;-35
2023/01/19 10:32:23;;;;;;;28.75;15.50;;;;;;;1.98;100.00;100592.63;4915793;29;20051;-35
2023/01/19 10:34:50;;;;;;;25.13;15.15;;;;;;;1.99;100.00;100591.59;4915892;29;20083;-35
2023/01/19 10:37:36;;;;;;;23.30;16.23;;;;;;;1.98;100.00;100583.78;4915705;29;20033;-34
2023/01/19 10:40:10;;;;;;;19.20;13.57;;;;;;;2.11;100.00;100596.53;4915834;29;20083;-35
2023/01/19 10:42:38;;;;;;;22.88;13.63;;;;;;;2.02;100.00;100588.59;4952689;29;20043;-36
2023/01/19 10:45:15;;;;;;;21.42;12.98;;;;;;;2.11;100.00;100605.34;4954387;29;20023;-36
2023/01/19 10:47:42;;;;;;;19.88;13.07;;;;;;;2.15;100.00;100595.97;4954238;29;20043;-35
2023/01/19 10:50:33;;;;;;;24.80;12.57;;;;;;;2.19;100.00;100602.56;4953678;29;20136;-35
2023/01/19 10:53:04;;;;;;;20.55;12.40;;;;;;;2.18;100.00;100589.44;4953387;28;20033;-36
2023/01/19 10:55:32;;;;;;;21.27;12.07;;;;;;;2.15;100.00;100585.31;4953629;29;20046;-36
2023/01/19 10:57:58;;;;;;;22.05;12.60;;;;;;;2.26;100.00;100592.84;4969752;28;20034;-36
2023/01/19 11:00:39;;;;;;;16.10;11.02;;;;;;;2.33;100.00;100593.75;5008917;28;20162;-36
2023/01/19 11:03:20;;;;;;;17.13;11.23;;;;;;;2.39;100.00;100589.56;5073428;28;20034;-36
2023/01/19 11:05:46;;;;;;;19.92;10.70;;;;;;;2.35;100.00;100584.75;5074170;28;20028;-36
2023/01/19 11:08:22;;;;;;;24.93;12.90;;;;;;;2.41;100.00;100589.38;5074471;28;20036;-36
2023/01/19 11:11:01;;;;;;;27.33;14.70;;;;;;;2.48;100.00;100596.44;5074271;28;20032;-36
2023/01/19 11:13:26;;;;;;;26.15;14.73;;;;;;;2.52;100.00;100587.03;5074361;28;20039;-37
2023/01/19 11:15:58;;;;;;;18.77;11.80;;;;;;;2.55;100.00;100593.88;5073535;28;20024;-36
2023/01/19 11:18:36;;;;;;;21.25;11.93;;;;;;;2.60;100.00;100594.16;5073146;28;20028;-36
2023/01/19 11:21:16;;;;;;;19.00;10.90;;;;;;;2.56;100.00;100584.84;5073225;28;20025;-36
2023/01/19 11:23:49;;;;;;;16.75;10.77;;;;;;;2.67;100.00;100591.56;5074316;28;20024;-36
2023/01/19 11:26:25;;;;;;;17.10;10.80;;;;;;;2.71;100.00;100591.00;5073779;28;20025;-37
2023/01/19 11:28:53;;;;;;;17.85;10.10;;;;;;;2.78;100.00;100596.41;5073714;28;20024;-36
2023/01/19 11:31:39;;;;;;;15.95;10.02;;;;;;;2.84;100.00;100595.69;5073379;28;20048;-36